Delta State, Mississippi
Current Conditions -  °F | °C
As of 7:15 AM on Thursday 18 Dec 2014 (Local Time) from KRNV Reporting Station
Drizzle Drizzle  
Wind Chill: 37°   Ceiling: 4600
Heat Index: 41°   Visibility: 7mi
Dew Point: 41°   Wind: 6mph
Humidity: 100%   Direction: 110°ESE
Pressure: 30.22"   Gusts: NA
Location:  33.7476°N, 90.8364°W
Report Text: KRNV 181315Z AUTO 11005KT 7SM -DZ OVC046 05/05 A3022 RMK AO2 T00480048
Loading
Personal Weather Stations






























Interactive Weather Map New forecast layout! Learn more

10-Day Weather Forecast

Advertisements
Track Severe Weather on mobile